sensor_id;sensor_type;location;lat;lon;timestamp;pressure;altitude;pressure_sealevel;temperature;humidity
28000;BME280;15328;50.860;10.562;2023-04-25T00:02:20;95666.47;;;8.58;54.88
28000;BME280;15328;50.860;10.562;2023-04-25T00:07:20;95647.91;;;8.58;54.48
28000;BME280;15328;50.860;10.562;2023-04-25T00:12:21;95656.69;;;8.70;53.94
28000;BME280;15328;50.860;10.562;2023-04-25T00:17:23;95650.31;;;8.59;53.78
28000;BME280;15328;50.860;10.562;2023-04-25T00:22:26;95647.66;;;8.59;53.62
28000;BME280;15328;50.860;10.562;2023-04-25T00:27:27;95654.00;;;8.58;53.38
28000;BME280;15328;50.860;10.562;2023-04-25T00:32:27;95643.34;;;8.47;53.35
28000;BME280;15328;50.860;10.562;2023-04-25T00:37:27;95642.31;;;8.48;53.58
28000;BME280;15328;50.860;10.562;2023-04-25T00:42:28;95650.13;;;8.43;54.17
28000;BME280;15328;50.860;10.562;2023-04-25T00:47:28;95651.97;;;8.42;54.50
28000;BME280;15328;50.860;10.562;2023-04-25T00:52:29;95644.47;;;8.39;54.63
28000;BME280;15328;50.860;10.562;2023-04-25T00:57:29;95646.44;;;8.44;54.11
28000;BME280;15328;50.860;10.562;2023-04-25T01:02:30;95643.94;;;8.30;54.59
28000;BME280;15328;50.860;10.562;2023-04-25T01:07:31;95650.53;;;8.21;54.56
28000;BME280;15328;50.860;10.562;2023-04-25T01:12:32;95639.75;;;8.23;54.58
28000;BME280;15328;50.860;10.562;2023-04-25T01:17:34;95631.22;;;8.02;54.74
28000;BME280;15328;50.860;10.562;2023-04-25T01:22:35;95638.22;;;7.97;55.00
28000;BME280;15328;50.860;10.562;2023-04-25T01:27:36;95640.63;;;7.98;54.88
28000;BME280;15328;50.860;10.562;2023-04-25T01:32:37;95631.13;;;8.09;54.34
28000;BME280;15328;50.860;10.562;2023-04-25T01:37:42;95635.47;;;8.03;54.41
28000;BME280;15328;50.860;10.562;2023-04-25T01:42:43;95637.22;;;7.91;54.69
28000;BME280;15328;50.860;10.562;2023-04-25T01:47:44;95644.31;;;7.97;54.77
28000;BME280;15328;50.860;10.562;2023-04-25T01:52:49;95646.44;;;8.07;54.74
28000;BME280;15328;50.860;10.562;2023-04-25T01:57:49;95646.66;;;8.05;55.86
28000;BME280;15328;50.860;10.562;2023-04-25T02:02:49;95640.78;;;8.03;55.56
28000;BME280;15328;50.860;10.562;2023-04-25T02:07:50;95636.94;;;8.18;54.82
28000;BME280;15328;50.860;10.562;2023-04-25T02:12:51;95637.09;;;8.23;55.42
28000;BME280;15328;50.860;10.562;2023-04-25T02:17:51;95641.13;;;8.25;55.54
28000;BME280;15328;50.860;10.562;2023-04-25T02:22:54;95646.13;;;8.15;56.14
28000;BME280;15328;50.860;10.562;2023-04-25T02:27:55;95639.66;;;8.11;55.91
28000;BME280;15328;50.860;10.562;2023-04-25T02:32:55;95634.91;;;8.01;56.71
28000;BME280;15328;50.860;10.562;2023-04-25T02:37:56;95629.13;;;7.86;56.92
28000;BME280;15328;50.860;10.562;2023-04-25T02:42:56;95629.00;;;7.81;56.69
28000;BME280;15328;50.860;10.562;2023-04-25T02:47:57;95636.19;;;7.74;56.42
28000;BME280;15328;50.860;10.562;2023-04-25T02:52:57;95635.94;;;7.57;57.11
28000;BME280;15328;50.860;10.562;2023-04-25T02:57:58;95637.84;;;7.50;56.87
28000;BME280;15328;50.860;10.562;2023-04-25T03:02:58;95627.75;;;7.40;57.12
28000;BME280;15328;50.860;10.562;2023-04-25T03:07:59;95635.53;;;7.35;57.49
28000;BME280;15328;50.860;10.562;2023-04-25T03:12:59;95636.22;;;7.24;57.57
28000;BME280;15328;50.860;10.562;2023-04-25T03:17:59;95644.88;;;7.13;57.76
28000;BME280;15328;50.860;10.562;2023-04-25T03:23:00;95637.34;;;7.10;57.59
28000;BME280;15328;50.860;10.562;2023-04-25T03:28:00;95642.69;;;7.03;57.62
28000;BME280;15328;50.860;10.562;2023-04-25T03:33:00;95633.41;;;6.94;57.79
28000;BME280;15328;50.860;10.562;2023-04-25T03:38:00;95628.72;;;7.21;56.34
28000;BME280;15328;50.860;10.562;2023-04-25T03:43:01;95634.81;;;6.97;57.06
28000;BME280;15328;50.860;10.562;2023-04-25T03:48:01;95641.94;;;6.96;56.56
28000;BME280;15328;50.860;10.562;2023-04-25T03:53:01;95643.78;;;6.96;56.88
28000;BME280;15328;50.860;10.562;2023-04-25T03:58:02;95647.22;;;6.96;56.90
28000;BME280;15328;50.860;10.562;2023-04-25T04:03:02;95647.06;;;6.91;56.92
28000;BME280;15328;50.860;10.562;2023-04-25T04:08:03;95641.19;;;6.89;56.67
28000;BME280;15328;50.860;10.562;2023-04-25T04:13:03;95637.88;;;6.94;55.60
28000;BME280;15328;50.860;10.562;2023-04-25T04:18:03;95645.34;;;7.03;55.64
28000;BME280;15328;50.860;10.562;2023-04-25T04:23:04;95659.50;;;7.16;55.10
28000;BME280;15328;50.860;10.562;2023-04-25T04:28:05;95654.44;;;7.07;55.14
28000;BME280;15328;50.860;10.562;2023-04-25T04:33:06;95656.13;;;7.02;55.35
28000;BME280;15328;50.860;10.562;2023-04-25T04:38:07;95654.06;;;7.04;55.04
28000;BME280;15328;50.860;10.562;2023-04-25T04:43:07;95648.72;;;7.17;54.19
28000;BME280;15328;50.860;10.562;2023-04-25T04:48:10;95642.59;;;7.17;53.95
28000;BME280;15328;50.860;10.562;2023-04-25T04:53:12;95650.06;;;7.26;53.02
28000;BME280;15328;50.860;10.562;2023-04-25T04:58:13;95658.09;;;7.13;53.44
28000;BME280;15328;50.860;10.562;2023-04-25T05:03:13;95663.03;;;7.03;53.91
28000;BME280;15328;50.860;10.562;2023-04-25T05:08:14;95677.16;;;7.22;53.54
28000;BME280;15328;50.860;10.562;2023-04-25T05:13:17;95681.16;;;7.31;52.89
28000;BME280;15328;50.860;10.562;2023-04-25T05:18:25;95692.88;;;7.17;53.42
28000;BME280;15328;50.860;10.562;2023-04-25T05:23:46;95694.06;;;7.21;54.26
28000;BME280;15328;50.860;10.562;2023-04-25T05:28:50;95699.13;;;7.22;53.78
28000;BME280;15328;50.860;10.562;2023-04-25T05:33:51;95697.06;;;7.24;53.85
28000;BME280;15328;50.860;10.562;2023-04-25T05:38:52;95709.16;;;7.38;53.63
28000;BME280;15328;50.860;10.562;2023-04-25T05:43:52;95722.63;;;7.37;54.01
28000;BME280;15328;50.860;10.562;2023-04-25T05:48:52;95728.47;;;7.46;53.50
28000;BME280;15328;50.860;10.562;2023-04-25T05:53:56;95728.56;;;7.57;52.96
28000;BME280;15328;50.860;10.562;2023-04-25T05:58:59;95725.84;;;7.70;53.01
28000;BME280;15328;50.860;10.562;2023-04-25T06:04:06;95725.28;;;7.87;52.84
28000;BME280;15328;50.860;10.562;2023-04-25T06:09:15;95728.47;;;7.95;51.63
28000;BME280;15328;50.860;10.562;2023-04-25T06:14:22;95739.06;;;7.95;52.34
28000;BME280;15328;50.860;10.562;2023-04-25T06:19:33;95735.75;;;8.00;52.35
28000;BME280;15328;50.860;10.562;2023-04-25T06:24:48;95728.63;;;8.00;52.01
28000;BME280;15328;50.860;10.562;2023-04-25T06:30:14;95731.41;;;8.05;52.62
28000;BME280;15328;50.860;10.562;2023-04-25T06:35:20;95737.22;;;8.39;51.88
28000;BME280;15328;50.860;10.562;2023-04-25T06:40:24;95731.34;;;8.55;51.30
28000;BME280;15328;50.860;10.562;2023-04-25T06:50:41;95733.69;;;8.63;51.38
28000;BME280;15328;50.860;10.562;2023-04-25T06:55:44;95740.69;;;8.58;51.67
28000;BME280;15328;50.860;10.562;2023-04-25T07:01:14;95741.09;;;8.73;51.51
28000;BME280;15328;50.860;10.562;2023-04-25T07:06:41;95750.88;;;9.09;51.16
28000;BME280;15328;50.860;10.562;2023-04-25T07:12:15;95757.72;;;9.28;50.80
28000;BME280;15328;50.860;10.562;2023-04-25T07:17:27;95759.16;;;9.43;50.37
28000;BME280;15328;50.860;10.562;2023-04-25T07:22:30;95765.88;;;9.57;49.68
28000;BME280;15328;50.860;10.562;2023-04-25T07:27:34;95774.72;;;9.69;49.70
28000;BME280;15328;50.860;10.562;2023-04-25T07:32:34;95785.34;;;9.81;49.53
28000;BME280;15328;50.860;10.562;2023-04-25T07:37:35;95779.81;;;9.82;49.40
28000;BME280;15328;50.860;10.562;2023-04-25T07:42:44;95786.75;;;9.95;48.75
28000;BME280;15328;50.860;10.562;2023-04-25T07:47:51;95792.78;;;9.90;48.90
28000;BME280;15328;50.860;10.562;2023-04-25T07:52:52;95797.59;;;9.82;49.00
28000;BME280;15328;50.860;10.562;2023-04-25T07:58:11;95800.81;;;9.72;48.81
28000;BME280;15328;50.860;10.562;2023-04-25T08:03:17;95814.50;;;9.57;49.57
28000;BME280;15328;50.860;10.562;2023-04-25T08:08:32;95831.78;;;9.48;49.90
28000;BME280;15328;50.860;10.562;2023-04-25T08:13:41;95838.44;;;9.39;50.98
28000;BME280;15328;50.860;10.562;2023-04-25T08:18:59;95838.25;;;9.52;52.07
28000;BME280;15328;50.860;10.562;2023-04-25T08:24:14;95850.56;;;9.65;52.62
28000;BME280;15328;50.860;10.562;2023-04-25T08:29:34;95854.78;;;9.54;53.76
28000;BME280;15328;50.860;10.562;2023-04-25T08:34:37;95854.97;;;9.41;54.39
28000;BME280;15328;50.860;10.562;2023-04-25T08:40:14;95875.03;;;9.37;55.06
28000;BME280;15328;50.860;10.562;2023-04-25T08:51:40;95888.06;;;9.02;56.14
28000;BME280;15328;50.860;10.562;2023-04-25T08:56:51;95899.88;;;8.88;56.88
28000;BME280;15328;50.860;10.562;2023-04-25T09:02:10;95901.59;;;8.76;57.39
28000;BME280;15328;50.860;10.562;2023-04-25T09:07:39;95909.88;;;8.86;58.46
28000;BME280;15328;50.860;10.562;2023-04-25T09:18:41;95922.63;;;8.95;58.40
28000;BME280;15328;50.860;10.562;2023-04-25T09:23:51;95942.84;;;8.72;58.45
28000;BME280;15328;50.860;10.562;2023-04-25T09:29:11;95950.06;;;8.64;58.08
28000;BME280;15328;50.860;10.562;2023-04-25T09:34:34;95953.22;;;8.55;56.47
28000;BME280;15328;50.860;10.562;2023-04-25T09:39:39;95946.94;;;8.49;55.92
28000;BME280;15328;50.860;10.562;2023-04-25T09:44:50;95960.66;;;8.64;55.98
28000;BME280;15328;50.860;10.562;2023-04-25T09:49:55;95951.47;;;9.10;56.71
28000;BME280;15328;50.860;10.562;2023-04-25T09:54:55;95958.56;;;9.35;54.86
28000;BME280;15328;50.860;10.562;2023-04-25T09:59:55;95966.75;;;9.51;54.49
28000;BME280;15328;50.860;10.562;2023-04-25T10:04:56;95963.72;;;9.66;53.99
28000;BME280;15328;50.860;10.562;2023-04-25T10:10:01;95972.72;;;10.43;53.32
28000;BME280;15328;50.860;10.562;2023-04-25T10:15:03;95965.16;;;11.29;49.57
28000;BME280;15328;50.860;10.562;2023-04-25T10:20:06;95968.88;;;12.65;49.59
28000;BME280;15328;50.860;10.562;2023-04-25T10:25:11;95959.69;;;13.45;44.63
28000;BME280;15328;50.860;10.562;2023-04-25T10:30:15;95953.25;;;13.68;43.68
28000;BME280;15328;50.860;10.562;2023-04-25T10:35:24;95959.41;;;13.68;42.61
28000;BME280;15328;50.860;10.562;2023-04-25T10:40:25;95948.09;;;14.05;41.05
28000;BME280;15328;50.860;10.562;2023-04-25T10:45:25;95947.25;;;13.55;40.08
28000;BME280;15328;50.860;10.562;2023-04-25T10:50:37;95956.56;;;12.81;42.31
28000;BME280;15328;50.860;10.562;2023-04-25T10:55:50;95969.44;;;12.22;43.02
28000;BME280;15328;50.860;10.562;2023-04-25T11:00:51;95967.53;;;11.42;43.76
28000;BME280;15328;50.860;10.562;2023-04-25T11:05:52;95981.69;;;11.07;45.52
28000;BME280;15328;50.860;10.562;2023-04-25T11:10:53;95983.66;;;10.89;47.16
28000;BME280;15328;50.860;10.562;2023-04-25T11:15:54;95986.09;;;11.02;47.41
28000;BME280;15328;50.860;10.562;2023-04-25T11:20:55;95992.56;;;11.18;46.39
28000;BME280;15328;50.860;10.562;2023-04-25T11:25:56;95988.75;;;11.13;45.69
28000;BME280;15328;50.860;10.562;2023-04-25T11:30:56;95987.34;;;11.23;46.69
28000;BME280;15328;50.860;10.562;2023-04-25T11:35:57;95989.34;;;11.04;44.36
28000;BME280;15328;50.860;10.562;2023-04-25T11:40:58;95995.47;;;11.04;44.51
28000;BME280;15328;50.860;10.562;2023-04-25T11:45:58;95990.84;;;11.11;42.39
28000;BME280;15328;50.860;10.562;2023-04-25T11:51:00;95988.63;;;11.32;41.18
28000;BME280;15328;50.860;10.562;2023-04-25T11:56:00;95999.25;;;11.79;40.52
28000;BME280;15328;50.860;10.562;2023-04-25T12:01:01;96001.25;;;12.00;38.43
28000;BME280;15328;50.860;10.562;2023-04-25T12:06:03;95998.31;;;11.85;39.12
28000;BME280;15328;50.860;10.562;2023-04-25T12:11:04;96010.81;;;11.72;38.64
28000;BME280;15328;50.860;10.562;2023-04-25T12:16:04;96018.25;;;11.47;39.26
28000;BME280;15328;50.860;10.562;2023-04-25T12:21:05;96028.00;;;11.18;39.38
28000;BME280;15328;50.860;10.562;2023-04-25T12:26:06;96033.50;;;10.81;40.12
28000;BME280;15328;50.860;10.562;2023-04-25T12:31:07;96036.59;;;10.67;39.83
28000;BME280;15328;50.860;10.562;2023-04-25T12:36:08;96036.63;;;10.90;40.46
28000;BME280;15328;50.860;10.562;2023-04-25T12:41:09;96042.91;;;11.19;38.82
28000;BME280;15328;50.860;10.562;2023-04-25T12:46:09;96041.53;;;11.63;37.84
28000;BME280;15328;50.860;10.562;2023-04-25T12:51:09;96040.63;;;12.50;37.87
28000;BME280;15328;50.860;10.562;2023-04-25T12:56:10;96040.59;;;12.78;35.28
28000;BME280;15328;50.860;10.562;2023-04-25T13:01:11;96037.09;;;12.61;35.42
28000;BME280;15328;50.860;10.562;2023-04-25T13:06:12;96038.16;;;12.77;35.39
28000;BME280;15328;50.860;10.562;2023-04-25T13:11:13;96044.47;;;12.87;34.15
28000;BME280;15328;50.860;10.562;2023-04-25T13:16:14;96057.44;;;12.50;35.28
28000;BME280;15328;50.860;10.562;2023-04-25T13:21:15;96068.28;;;11.92;34.44
28000;BME280;15328;50.860;10.562;2023-04-25T13:26:16;96077.44;;;11.61;35.21
28000;BME280;15328;50.860;10.562;2023-04-25T13:31:16;96066.91;;;11.42;36.41
28000;BME280;15328;50.860;10.562;2023-04-25T13:36:17;96061.91;;;11.93;35.71
28000;BME280;15328;50.860;10.562;2023-04-25T13:41:17;96063.91;;;12.26;32.83
28000;BME280;15328;50.860;10.562;2023-04-25T13:46:18;96066.31;;;12.27;33.66
28000;BME280;15328;50.860;10.562;2023-04-25T13:51:19;96067.50;;;12.20;33.26
28000;BME280;15328;50.860;10.562;2023-04-25T13:56:19;96086.50;;;11.83;33.06
28000;BME280;15328;50.860;10.562;2023-04-25T14:01:20;96090.97;;;11.71;33.63
28000;BME280;15328;50.860;10.562;2023-04-25T14:06:21;96093.75;;;11.64;33.53
28000;BME280;15328;50.860;10.562;2023-04-25T14:11:24;96092.50;;;11.55;34.73
28000;BME280;15328;50.860;10.562;2023-04-25T14:16:24;96096.44;;;11.64;34.75
28000;BME280;15328;50.860;10.562;2023-04-25T14:21:24;96101.41;;;12.07;34.66
28000;BME280;15328;50.860;10.562;2023-04-25T14:26:25;96095.88;;;12.37;32.75
28000;BME280;15328;50.860;10.562;2023-04-25T14:31:25;96087.06;;;12.37;32.67
28000;BME280;15328;50.860;10.562;2023-04-25T14:36:28;96094.50;;;12.23;33.03
28000;BME280;15328;50.860;10.562;2023-04-25T14:41:28;96088.72;;;12.26;32.45
28000;BME280;15328;50.860;10.562;2023-04-25T14:46:28;96081.97;;;12.35;32.89
28000;BME280;15328;50.860;10.562;2023-04-25T14:51:29;96098.16;;;12.46;31.70
28000;BME280;15328;50.860;10.562;2023-04-25T14:56:29;96099.06;;;12.51;32.06
28000;BME280;15328;50.860;10.562;2023-04-25T15:01:30;96105.28;;;12.28;31.25
28000;BME280;15328;50.860;10.562;2023-04-25T15:06:36;96116.94;;;12.11;32.04
28000;BME280;15328;50.860;10.562;2023-04-25T15:11:37;96122.75;;;11.84;32.72
28000;BME280;15328;50.860;10.562;2023-04-25T15:16:37;96118.47;;;11.83;33.34
28000;BME280;15328;50.860;10.562;2023-04-25T15:21:46;96125.66;;;11.83;33.42
28000;BME280;15328;50.860;10.562;2023-04-25T15:26:54;96127.84;;;11.86;33.07
28000;BME280;15328;50.860;10.562;2023-04-25T15:31:57;96128.31;;;11.83;33.19
28000;BME280;15328;50.860;10.562;2023-04-25T15:36:58;96138.56;;;11.44;31.48
28000;BME280;15328;50.860;10.562;2023-04-25T15:42:04;96134.63;;;11.46;32.42
28000;BME280;15328;50.860;10.562;2023-04-25T15:47:07;96132.53;;;11.49;32.64
28000;BME280;15328;50.860;10.562;2023-04-25T15:52:18;96134.06;;;11.44;32.90
28000;BME280;15328;50.860;10.562;2023-04-25T15:57:21;96142.16;;;11.50;32.51
28000;BME280;15328;50.860;10.562;2023-04-25T16:02:21;96149.81;;;11.34;32.48
28000;BME280;15328;50.860;10.562;2023-04-25T16:07:25;96141.88;;;11.16;33.60
28000;BME280;15328;50.860;10.562;2023-04-25T16:12:25;96142.56;;;11.00;32.80
28000;BME280;15328;50.860;10.562;2023-04-25T16:17:27;96152.09;;;10.89;33.20
28000;BME280;15328;50.860;10.562;2023-04-25T16:22:32;96150.94;;;10.85;33.02
28000;BME280;15328;50.860;10.562;2023-04-25T16:27:36;96147.06;;;10.69;33.81
28000;BME280;15328;50.860;10.562;2023-04-25T16:32:42;96140.28;;;10.55;34.44
28000;BME280;15328;50.860;10.562;2023-04-25T16:37:45;96143.97;;;10.54;33.94
28000;BME280;15328;50.860;10.562;2023-04-25T16:42:49;96147.03;;;10.39;33.13
28000;BME280;15328;50.860;10.562;2023-04-25T16:47:56;96143.31;;;10.40;34.10
28000;BME280;15328;50.860;10.562;2023-04-25T16:52:56;96157.50;;;10.34;34.62
28000;BME280;15328;50.860;10.562;2023-04-25T16:57:57;96154.94;;;10.28;34.95
28000;BME280;15328;50.860;10.562;2023-04-25T17:03:03;96163.69;;;10.10;34.43
28000;BME280;15328;50.860;10.562;2023-04-25T17:08:06;96159.56;;;10.14;34.12
28000;BME280;15328;50.860;10.562;2023-04-25T17:13:10;96169.53;;;10.00;35.04
28000;BME280;15328;50.860;10.562;2023-04-25T17:18:11;96169.59;;;9.94;35.46
28000;BME280;15328;50.860;10.562;2023-04-25T17:23:15;96176.81;;;9.86;35.49
28000;BME280;15328;50.860;10.562;2023-04-25T17:28:15;96175.97;;;9.86;35.46
28000;BME280;15328;50.860;10.562;2023-04-25T17:33:21;96177.59;;;9.69;35.54
28000;BME280;15328;50.860;10.562;2023-04-25T17:38:26;96186.75;;;9.73;35.82
28000;BME280;15328;50.860;10.562;2023-04-25T17:43:30;96186.66;;;9.61;36.24
28000;BME280;15328;50.860;10.562;2023-04-25T17:48:34;96184.09;;;9.48;36.64
28000;BME280;15328;50.860;10.562;2023-04-25T17:53:35;96195.16;;;9.45;36.63
28000;BME280;15328;50.860;10.562;2023-04-25T17:58:41;96193.59;;;9.37;37.92
28000;BME280;15328;50.860;10.562;2023-04-25T18:04:02;96202.31;;;9.44;37.24
28000;BME280;15328;50.860;10.562;2023-04-25T18:09:12;96210.44;;;9.49;36.48
28000;BME280;15328;50.860;10.562;2023-04-25T18:14:16;96214.59;;;9.39;37.28
28000;BME280;15328;50.860;10.562;2023-04-25T18:19:16;96221.81;;;9.32;37.65
28000;BME280;15328;50.860;10.562;2023-04-25T18:24:23;96232.81;;;9.28;37.18
28000;BME280;15328;50.860;10.562;2023-04-25T18:29:27;96234.22;;;9.06;38.39
28000;BME280;15328;50.860;10.562;2023-04-25T18:34:28;96246.69;;;8.99;39.08
28000;BME280;15328;50.860;10.562;2023-04-25T18:39:28;96251.47;;;8.84;39.44
28000;BME280;15328;50.860;10.562;2023-04-25T18:44:28;96255.81;;;8.65;40.36
28000;BME280;15328;50.860;10.562;2023-04-25T18:49:35;96271.19;;;8.50;40.74
28000;BME280;15328;50.860;10.562;2023-04-25T18:54:37;96268.34;;;8.38;40.89
28000;BME280;15328;50.860;10.562;2023-04-25T18:59:37;96278.94;;;8.25;41.19
28000;BME280;15328;50.860;10.562;2023-04-25T19:04:41;96285.88;;;8.13;41.64
28000;BME280;15328;50.860;10.562;2023-04-25T19:09:42;96296.09;;;7.96;42.29
28000;BME280;15328;50.860;10.562;2023-04-25T19:14:45;96302.00;;;7.78;42.50
28000;BME280;15328;50.860;10.562;2023-04-25T19:19:48;96305.88;;;7.69;42.85
28000;BME280;15328;50.860;10.562;2023-04-25T19:24:49;96300.75;;;7.54;43.03
28000;BME280;15328;50.860;10.562;2023-04-25T19:29:49;96310.09;;;7.43;43.23
28000;BME280;15328;50.860;10.562;2023-04-25T19:34:59;96315.16;;;7.32;44.04
28000;BME280;15328;50.860;10.562;2023-04-25T19:40:00;96316.34;;;7.23;44.30
28000;BME280;15328;50.860;10.562;2023-04-25T19:45:03;96318.00;;;7.30;43.73
28000;BME280;15328;50.860;10.562;2023-04-25T19:50:07;96325.38;;;7.41;43.58
28000;BME280;15328;50.860;10.562;2023-04-25T19:55:10;96328.22;;;7.40;44.21
28000;BME280;15328;50.860;10.562;2023-04-25T20:00:16;96323.91;;;7.39;44.81
28000;BME280;15328;50.860;10.562;2023-04-25T20:05:20;96333.06;;;7.36;44.96
28000;BME280;15328;50.860;10.562;2023-04-25T20:10:21;96337.56;;;7.36;45.02
28000;BME280;15328;50.860;10.562;2023-04-25T20:15:22;96349.59;;;7.45;44.20
28000;BME280;15328;50.860;10.562;2023-04-25T20:20:22;96345.94;;;7.46;44.18
28000;BME280;15328;50.860;10.562;2023-04-25T20:25:23;96353.50;;;7.56;44.40
28000;BME280;15328;50.860;10.562;2023-04-25T20:30:23;96346.34;;;7.56;44.56
28000;BME280;15328;50.860;10.562;2023-04-25T20:35:27;96349.41;;;7.60;44.42
28000;BME280;15328;50.860;10.562;2023-04-25T20:40:29;96341.91;;;7.83;42.98
28000;BME280;15328;50.860;10.562;2023-04-25T20:45:31;96355.97;;;7.70;43.54
28000;BME280;15328;50.860;10.562;2023-04-25T20:50:33;96351.25;;;7.59;44.08
28000;BME280;15328;50.860;10.562;2023-04-25T20:55:33;96349.63;;;7.65;43.70
28000;BME280;15328;50.860;10.562;2023-04-25T21:00:36;96356.53;;;7.53;43.98
28000;BME280;15328;50.860;10.562;2023-04-25T21:05:38;96356.94;;;7.56;44.16
28000;BME280;15328;50.860;10.562;2023-04-25T21:10:38;96352.25;;;7.52;44.30
28000;BME280;15328;50.860;10.562;2023-04-25T21:15:39;96357.75;;;7.57;43.97
28000;BME280;15328;50.860;10.562;2023-04-25T21:20:39;96362.84;;;7.52;44.22
28000;BME280;15328;50.860;10.562;2023-04-25T21:25:40;96363.66;;;7.46;44.49
28000;BME280;15328;50.860;10.562;2023-04-25T21:30:42;96382.13;;;7.32;45.60
28000;BME280;15328;50.860;10.562;2023-04-25T21:35:42;96379.25;;;7.27;45.70
28000;BME280;15328;50.860;10.562;2023-04-25T21:40:43;96377.22;;;7.23;46.25
28000;BME280;15328;50.860;10.562;2023-04-25T21:45:44;96383.31;;;7.17;46.47
28000;BME280;15328;50.860;10.562;2023-04-25T21:50:47;96387.59;;;7.24;46.28
28000;BME280;15328;50.860;10.562;2023-04-25T21:55:47;96380.59;;;7.03;47.02
28000;BME280;15328;50.860;10.562;2023-04-25T22:00:48;96390.13;;;6.98;47.42
28000;BME280;15328;50.860;10.562;2023-04-25T22:05:49;96386.56;;;6.77;48.29
28000;BME280;15328;50.860;10.562;2023-04-25T22:10:52;96390.19;;;6.70;47.70
28000;BME280;15328;50.860;10.562;2023-04-25T22:15:54;96394.63;;;6.63;48.53
28000;BME280;15328;50.860;10.562;2023-04-25T22:20:58;96394.25;;;6.72;47.46
28000;BME280;15328;50.860;10.562;2023-04-25T22:25:58;96392.97;;;6.62;47.43
28000;BME280;15328;50.860;10.562;2023-04-25T22:30:58;96393.69;;;6.49;48.31
28000;BME280;15328;50.860;10.562;2023-04-25T22:35:59;96396.44;;;6.62;47.74
28000;BME280;15328;50.860;10.562;2023-04-25T22:41:00;96401.13;;;6.67;47.52
28000;BME280;15328;50.860;10.562;2023-04-25T22:46:00;96412.53;;;6.67;47.87
28000;BME280;15328;50.860;10.562;2023-04-25T22:51:02;96407.97;;;6.55;47.88
28000;BME280;15328;50.860;10.562;2023-04-25T22:56:03;96412.22;;;6.56;47.85
28000;BME280;15328;50.860;10.562;2023-04-25T23:01:03;96415.19;;;6.67;47.77
28000;BME280;15328;50.860;10.562;2023-04-25T23:06:05;96415.88;;;6.55;48.32
28000;BME280;15328;50.860;10.562;2023-04-25T23:11:07;96415.06;;;6.54;48.61
28000;BME280;15328;50.860;10.562;2023-04-25T23:16:08;96421.63;;;6.58;48.09
28000;BME280;15328;50.860;10.562;2023-04-25T23:21:09;96415.13;;;6.61;48.42
28000;BME280;15328;50.860;10.562;2023-04-25T23:26:11;96421.09;;;6.69;47.75
28000;BME280;15328;50.860;10.562;2023-04-25T23:31:11;96419.25;;;6.70;48.19
28000;BME280;15328;50.860;10.562;2023-04-25T23:36:16;96439.13;;;6.59;47.95
28000;BME280;15328;50.860;10.562;2023-04-25T23:41:18;96433.38;;;6.56;47.74
28000;BME280;15328;50.860;10.562;2023-04-25T23:46:19;96431.09;;;6.46;48.54
28000;BME280;15328;50.860;10.562;2023-04-25T23:51:20;96441.47;;;6.47;48.36
28000;BME280;15328;50.860;10.562;2023-04-25T23:56:20;96442.03;;;6.43;48.66
